Time;durP1;ratioP1;P1;durP2;ratioP2;P2;SDS_P1;SDS_P2;PMS_P1;PMS_P2;Temp;Humidity;BMP_temperature;BMP_pressure;BME280_temperature;BME280_humidity;BME280_pressure;Samples;Min_cycle;Max_cycle;Signal;HPM_P1;HPM_P2
2023/05/31 00:00:11;;;;;;;2.50;1.60;;;;;;;;;;5282542;28;20119;-67
2023/05/31 00:02:43;;;;;;;3.45;1.60;;;;;;;;;;5281080;28;20387;-67
2023/05/31 00:05:14;;;;;;;3.47;1.77;;;;;;;;;;5282456;28;20016;-67
2023/05/31 00:07:45;;;;;;;3.25;2.05;;;;;;;;;;5281701;28;20145;-67
2023/05/31 00:10:16;;;;;;;3.05;2.08;;;;;;;;;;5281838;28;20021;-67
2023/05/31 00:12:48;;;;;;;2.90;1.73;;;;;;;;;;5281961;28;20020;-66
2023/05/31 00:15:19;;;;;;;3.10;2.30;;;;;;;;;;5282416;28;20025;-65
2023/05/31 00:17:50;;;;;;;3.67;2.25;;;;;;;;;;5281165;28;20339;-65
2023/05/31 00:20:21;;;;;;;1.90;1.58;;;;;;;;;;5282093;28;20035;-65
2023/05/31 00:22:52;;;;;;;2.88;2.00;;;;;;;;;;5281558;28;20017;-67
2023/05/31 00:25:23;;;;;;;2.73;2.00;;;;;;;;;;5281298;28;20270;-65
2023/05/31 00:27:55;;;;;;;4.35;2.42;;;;;;;;;;5281475;28;20772;-65
2023/05/31 00:30:26;;;;;;;6.82;1.70;;;;;;;;;;5281292;28;20032;-66
2023/05/31 00:32:57;;;;;;;5.95;2.05;;;;;;;;;;5281606;28;20095;-66
2023/05/31 00:35:28;;;;;;;3.33;2.25;;;;;;;;;;5282119;28;20036;-66
2023/05/31 00:38:01;;;;;;;3.35;1.92;;;;;;;;;;5280738;28;20026;-65
2023/05/31 00:40:33;;;;;;;3.50;2.38;;;;;;;;;;5281845;28;20015;-66
2023/05/31 00:43:04;;;;;;;6.10;2.60;;;;;;;;;;5281611;28;20387;-67
2023/05/31 00:45:35;;;;;;;4.30;2.75;;;;;;;;;;5281120;28;20060;-66
2023/05/31 00:48:07;;;;;;;5.97;2.70;;;;;;;;;;5281506;28;20044;-66
2023/05/31 00:50:38;;;;;;;4.30;1.98;;;;;;;;;;5281290;28;20270;-66
2023/05/31 00:53:09;;;;;;;2.97;2.05;;;;;;;;;;5280989;28;20379;-66
2023/05/31 00:55:40;;;;;;;2.50;1.90;;;;;;;;;;5280968;28;20183;-66
2023/05/31 00:58:12;;;;;;;2.92;2.22;;;;;;;;;;5281096;28;20411;-67
2023/05/31 01:00:43;;;;;;;4.82;2.13;;;;;;;;;;5281544;28;20017;-67
2023/05/31 01:03:15;;;;;;;4.32;2.50;;;;;;;;;;5281736;28;20021;-67
2023/05/31 01:05:46;;;;;;;8.95;2.47;;;;;;;;;;5280265;28;20028;-67
2023/05/31 01:08:19;;;;;;;3.08;2.78;;;;;;;;;;5281750;28;20478;-67
2023/05/31 01:10:51;;;;;;;3.00;2.33;;;;;;;;;;5281267;28;20052;-67
2023/05/31 01:13:34;;;;;;;3.15;2.17;;;;;;;;;;5281317;28;20022;-67
2023/05/31 01:16:06;;;;;;;3.38;2.10;;;;;;;;;;5281424;28;20060;-67
2023/05/31 01:18:52;;;;;;;3.38;2.40;;;;;;;;;;5281163;28;20085;-67
2023/05/31 01:21:28;;;;;;;2.90;2.17;;;;;;;;;;5285017;28;20044;-67
2023/05/31 01:24:21;;;;;;;5.95;2.17;;;;;;;;;;5285295;28;20035;-67
2023/05/31 01:26:55;;;;;;;3.85;2.22;;;;;;;;;;5284008;28;20023;-67
2023/05/31 01:29:29;;;;;;;3.53;2.03;;;;;;;;;;5285759;28;20090;-67
2023/05/31 01:32:00;;;;;;;3.45;2.10;;;;;;;;;;5285035;28;20066;-65
2023/05/31 01:34:31;;;;;;;3.28;2.40;;;;;;;;;;5284227;28;20111;-67
2023/05/31 01:37:03;;;;;;;3.83;2.58;;;;;;;;;;5284889;28;20016;-66
2023/05/31 01:39:34;;;;;;;4.00;2.50;;;;;;;;;;5284929;28;20052;-67
2023/05/31 01:42:06;;;;;;;6.03;2.70;;;;;;;;;;5284329;28;20028;-67
2023/05/31 01:44:38;;;;;;;4.72;3.15;;;;;;;;;;5284738;28;20275;-67
2023/05/31 01:47:10;;;;;;;3.85;2.30;;;;;;;;;;5284842;28;20017;-67
2023/05/31 01:49:41;;;;;;;3.42;2.55;;;;;;;;;;5283471;28;20487;-67
2023/05/31 01:52:13;;;;;;;2.80;2.42;;;;;;;;;;5285331;28;20099;-67
2023/05/31 01:54:44;;;;;;;3.33;2.20;;;;;;;;;;5283745;28;20048;-67
2023/05/31 01:57:17;;;;;;;4.90;2.63;;;;;;;;;;5285110;28;20127;-67
2023/05/31 01:59:49;;;;;;;2.65;2.35;;;;;;;;;;5284224;28;20033;-68
2023/05/31 02:02:20;;;;;;;3.95;2.90;;;;;;;;;;5283985;28;20024;-66
2023/05/31 02:05:03;;;;;;;3.33;2.95;;;;;;;;;;5284032;28;20028;-67
2023/05/31 02:07:37;;;;;;;3.25;2.22;;;;;;;;;;5284543;28;20467;-67
2023/05/31 02:10:09;;;;;;;5.70;2.88;;;;;;;;;;5283631;28;20029;-68
2023/05/31 02:12:40;;;;;;;3.95;3.13;;;;;;;;;;5283931;28;20452;-67
2023/05/31 02:15:12;;;;;;;5.35;3.17;;;;;;;;;;5284793;28;20017;-67
2023/05/31 02:17:43;;;;;;;3.65;2.70;;;;;;;;;;5283229;28;20012;-66
2023/05/31 02:20:14;;;;;;;5.97;3.60;;;;;;;;;;5284478;28;20025;-67
2023/05/31 02:22:46;;;;;;;3.30;2.80;;;;;;;;;;5283158;28;20750;-67
2023/05/31 02:25:18;;;;;;;3.70;3.28;;;;;;;;;;5284311;28;20021;-67
2023/05/31 02:27:49;;;;;;;3.28;2.97;;;;;;;;;;5283968;28;20028;-67
2023/05/31 02:30:20;;;;;;;3.65;2.78;;;;;;;;;;5283138;28;20262;-67
2023/05/31 02:32:53;;;;;;;3.63;2.90;;;;;;;;;;5283068;28;20024;-67
2023/05/31 02:35:24;;;;;;;4.28;3.00;;;;;;;;;;5284077;28;20312;-66
2023/05/31 02:37:55;;;;;;;4.35;3.10;;;;;;;;;;5282928;28;20024;-65
2023/05/31 02:40:26;;;;;;;4.93;3.08;;;;;;;;;;5284179;28;20023;-65
2023/05/31 02:42:58;;;;;;;4.67;3.40;;;;;;;;;;5283634;28;20050;-66
2023/05/31 02:45:29;;;;;;;4.97;3.80;;;;;;;;;;5283325;28;20271;-66
2023/05/31 02:48:03;;;;;;;5.07;3.22;;;;;;;;;;5283409;28;20255;-65
2023/05/31 02:50:34;;;;;;;3.25;2.83;;;;;;;;;;5283454;28;20024;-66
2023/05/31 02:53:05;;;;;;;5.13;3.40;;;;;;;;;;5282778;28;20502;-66
2023/05/31 02:55:37;;;;;;;6.05;4.10;;;;;;;;;;5283353;28;20813;-66
2023/05/31 02:58:08;;;;;;;3.88;3.05;;;;;;;;;;5282603;28;20016;-66
2023/05/31 03:00:40;;;;;;;3.40;3.03;;;;;;;;;;5282957;28;20032;-66
2023/05/31 03:03:12;;;;;;;4.10;3.10;;;;;;;;;;5283800;28;20262;-66
2023/05/31 03:05:43;;;;;;;3.50;3.20;;;;;;;;;;5282099;28;20032;-66
2023/05/31 03:08:15;;;;;;;6.03;4.13;;;;;;;;;;5283650;28;20360;-66
2023/05/31 03:10:46;;;;;;;4.07;3.67;;;;;;;;;;5282957;28;20031;-66
2023/05/31 03:13:17;;;;;;;5.30;4.28;;;;;;;;;;5282555;28;20287;-66
2023/05/31 03:15:48;;;;;;;4.35;3.70;;;;;;;;;;5282582;28;20039;-66
2023/05/31 03:18:20;;;;;;;4.53;3.85;;;;;;;;;;5283165;28;20039;-66
2023/05/31 03:20:51;;;;;;;4.13;3.65;;;;;;;;;;5281613;28;20021;-66
2023/05/31 03:23:22;;;;;;;4.82;4.03;;;;;;;;;;5282967;28;20383;-66
2023/05/31 03:25:53;;;;;;;4.40;3.55;;;;;;;;;;5281578;28;20875;-66
2023/05/31 03:28:24;;;;;;;5.07;4.50;;;;;;;;;;5283071;28;20017;-66
2023/05/31 03:30:55;;;;;;;6.40;4.05;;;;;;;;;;5282343;28;20294;-66
2023/05/31 03:33:27;;;;;;;6.75;4.10;;;;;;;;;;5282187;28;20552;-66
2023/05/31 03:35:58;;;;;;;5.40;3.95;;;;;;;;;;5282222;28;20237;-66
2023/05/31 03:38:29;;;;;;;7.53;4.68;;;;;;;;;;5282409;28;20024;-66
2023/05/31 03:41:00;;;;;;;5.47;4.15;;;;;;;;;;5281885;28;20021;-65
2023/05/31 03:43:32;;;;;;;4.30;3.63;;;;;;;;;;5282296;28;20046;-66
2023/05/31 03:46:03;;;;;;;5.22;4.32;;;;;;;;;;5282446;28;20371;-66
2023/05/31 03:48:34;;;;;;;6.90;4.55;;;;;;;;;;5281514;28;20031;-66
2023/05/31 03:51:05;;;;;;;10.70;4.80;;;;;;;;;;5282459;28;20087;-66
2023/05/31 03:53:36;;;;;;;5.55;4.47;;;;;;;;;;5282422;28;20020;-66
2023/05/31 03:56:08;;;;;;;7.00;5.07;;;;;;;;;;5281415;28;20290;-66
2023/05/31 03:58:39;;;;;;;6.78;5.18;;;;;;;;;;5281918;28;20290;-66
2023/05/31 04:01:11;;;;;;;6.95;4.57;;;;;;;;;;5281657;28;20012;-66
2023/05/31 04:03:42;;;;;;;5.07;4.43;;;;;;;;;;5281988;28;20051;-66
2023/05/31 04:06:13;;;;;;;6.03;5.03;;;;;;;;;;5282522;28;20099;-66
2023/05/31 04:08:44;;;;;;;5.45;4.65;;;;;;;;;;5280883;28;20274;-66
2023/05/31 04:11:16;;;;;;;5.85;4.75;;;;;;;;;;5282250;28;20561;-66
2023/05/31 04:13:47;;;;;;;5.88;5.22;;;;;;;;;;5281567;28;20530;-66
2023/05/31 04:16:18;;;;;;;6.53;5.03;;;;;;;;;;5281590;28;20025;-66
2023/05/31 04:18:49;;;;;;;5.80;4.27;;;;;;;;;;5281619;28;20286;-66
2023/05/31 04:21:21;;;;;;;7.13;5.45;;;;;;;;;;5282236;28;20323;-66
2023/05/31 04:23:52;;;;;;;7.40;5.57;;;;;;;;;;5280697;28;20278;-68
2023/05/31 04:26:23;;;;;;;8.15;6.38;;;;;;;;;;5282306;28;20017;-66
2023/05/31 04:28:54;;;;;;;7.75;5.35;;;;;;;;;;5281465;28;20023;-66
2023/05/31 04:31:28;;;;;;;8.38;5.30;;;;;;;;;;5281317;28;20471;-66
2023/05/31 04:33:59;;;;;;;6.88;5.85;;;;;;;;;;5281324;28;20265;-66
2023/05/31 04:36:35;;;;;;;9.32;5.80;;;;;;;;;;5280788;28;20020;-66
2023/05/31 04:39:12;;;;;;;7.03;5.47;;;;;;;;;;5281632;28;20032;-67
2023/05/31 04:41:43;;;;;;;8.65;6.80;;;;;;;;;;5281377;28;20032;-66
2023/05/31 04:44:14;;;;;;;6.72;5.95;;;;;;;;;;5281176;28;20016;-66
2023/05/31 04:46:46;;;;;;;6.50;5.88;;;;;;;;;;5281497;28;20021;-66
2023/05/31 04:49:18;;;;;;;12.48;6.45;;;;;;;;;;5281850;28;20029;-66
2023/05/31 04:51:50;;;;;;;8.02;6.53;;;;;;;;;;5280379;28;20032;-66
2023/05/31 04:54:21;;;;;;;8.93;6.53;;;;;;;;;;5282664;28;20028;-66
2023/05/31 04:56:52;;;;;;;8.43;6.85;;;;;;;;;;5285317;28;20408;-66
2023/05/31 04:59:23;;;;;;;8.32;7.47;;;;;;;;;;5285058;28;20641;-66
2023/05/31 05:01:55;;;;;;;9.20;8.13;;;;;;;;;;5285643;28;20016;-66
2023/05/31 05:04:26;;;;;;;9.57;8.55;;;;;;;;;;5285179;28;20107;-66
2023/05/31 05:06:57;;;;;;;12.88;8.07;;;;;;;;;;5285341;28;20471;-67
2023/05/31 05:09:28;;;;;;;10.10;7.55;;;;;;;;;;5285884;28;20294;-66
2023/05/31 05:12:00;;;;;;;11.80;8.63;;;;;;;;;;5284233;28;20016;-66
2023/05/31 05:14:31;;;;;;;11.73;10.23;;;;;;;;;;5285555;28;20267;-66
2023/05/31 05:17:02;;;;;;;10.70;9.00;;;;;;;;;;5285526;28;20017;-66
2023/05/31 05:19:34;;;;;;;10.27;9.18;;;;;;;;;;5284407;28;20043;-66
2023/05/31 05:22:05;;;;;;;10.10;8.30;;;;;;;;;;5285077;28;20103;-66
2023/05/31 05:24:36;;;;;;;12.67;8.87;;;;;;;;;;5285324;28;20356;-66
2023/05/31 05:27:07;;;;;;;12.73;9.77;;;;;;;;;;5284527;28;20255;-66
2023/05/31 05:29:38;;;;;;;13.32;9.80;;;;;;;;;;5284876;28;20263;-66
2023/05/31 05:32:10;;;;;;;13.05;9.60;;;;;;;;;;5285037;28;20044;-66
2023/05/31 05:34:41;;;;;;;13.47;9.20;;;;;;;;;;5283697;28;20107;-67
2023/05/31 05:37:12;;;;;;;13.97;10.13;;;;;;;;;;5285071;28;20760;-67
2023/05/31 05:39:43;;;;;;;15.48;10.20;;;;;;;;;;5283840;28;20722;-67
2023/05/31 05:42:14;;;;;;;12.60;9.75;;;;;;;;;;5285296;28;20087;-67
2023/05/31 05:44:45;;;;;;;12.20;10.10;;;;;;;;;;5284638;28;20048;-66
2023/05/31 05:47:17;;;;;;;10.80;9.35;;;;;;;;;;5284282;28;20270;-66
2023/05/31 05:49:48;;;;;;;13.18;9.48;;;;;;;;;;5284511;28;20035;-66
2023/05/31 05:52:19;;;;;;;16.70;9.95;;;;;;;;;;5284981;28;20265;-66
2023/05/31 05:54:50;;;;;;;12.23;9.82;;;;;;;;;;5283427;28;20033;-66
2023/05/31 05:57:22;;;;;;;13.27;10.30;;;;;;;;;;5284839;28;20039;-67
2023/05/31 05:59:53;;;;;;;11.85;10.35;;;;;;;;;;5284003;28;20335;-67
2023/05/31 06:02:24;;;;;;;12.00;10.68;;;;;;;;;;5284156;28;20266;-67
2023/05/31 06:04:57;;;;;;;13.48;10.00;;;;;;;;;;5284076;28;20345;-67
2023/05/31 06:07:29;;;;;;;13.40;10.30;;;;;;;;;;5284497;28;20273;-67
2023/05/31 06:10:02;;;;;;;13.35;10.50;;;;;;;;;;5283472;28;20020;-67
2023/05/31 06:12:33;;;;;;;10.00;8.70;;;;;;;;;;5284299;28;20036;-67
2023/05/31 06:15:05;;;;;;;9.88;8.88;;;;;;;;;;5283685;28;20034;-67
2023/05/31 06:17:37;;;;;;;16.05;10.40;;;;;;;;;;5284285;28;20062;-67
2023/05/31 06:20:10;;;;;;;13.88;9.95;;;;;;;;;;5284009;28;20043;-67
2023/05/31 06:22:41;;;;;;;13.75;10.32;;;;;;;;;;5282920;28;20044;-67
2023/05/31 06:25:13;;;;;;;14.35;11.75;;;;;;;;;;5284404;28;20071;-67
2023/05/31 06:27:45;;;;;;;11.68;10.38;;;;;;;;;;5283825;28;20044;-67
2023/05/31 06:30:16;;;;;;;13.52;10.18;;;;;;;;;;5283541;28;20016;-67
2023/05/31 06:32:47;;;;;;;13.77;10.73;;;;;;;;;;5283682;28;20035;-67
2023/05/31 06:35:19;;;;;;;13.18;10.80;;;;;;;;;;5284086;28;20282;-67
2023/05/31 06:37:51;;;;;;;13.05;10.45;;;;;;;;;;5282719;28;20016;-67
2023/05/31 06:40:22;;;;;;;14.80;10.02;;;;;;;;;;5283946;28;20028;-67
2023/05/31 06:42:53;;;;;;;12.25;9.02;;;;;;;;;;5282485;28;20027;-67
2023/05/31 06:45:24;;;;;;;13.02;10.45;;;;;;;;;;5283776;28;20395;-67
2023/05/31 06:47:56;;;;;;;12.70;9.27;;;;;;;;;;5283435;28;20095;-67
2023/05/31 06:50:27;;;;;;;16.27;10.60;;;;;;;;;;5282826;28;20262;-66
2023/05/31 06:52:58;;;;;;;14.90;9.70;;;;;;;;;;5278150;28;20565;-66
2023/05/31 06:55:30;;;;;;;14.23;10.02;;;;;;;;;;5282986;28;20072;-66
2023/05/31 06:58:02;;;;;;;12.25;9.27;;;;;;;;;;5282337;28;20021;-67
2023/05/31 07:00:33;;;;;;;14.68;10.02;;;;;;;;;;5283186;28;20024;-66
2023/05/31 07:03:05;;;;;;;12.60;8.97;;;;;;;;;;5283046;28;20074;-67
2023/05/31 07:05:36;;;;;;;16.15;9.80;;;;;;;;;;5282311;28;20278;-67
2023/05/31 07:08:07;;;;;;;15.13;9.82;;;;;;;;;;5282464;28;20041;-67
2023/05/31 07:10:39;;;;;;;11.80;8.70;;;;;;;;;;5282357;28;20051;-67
2023/05/31 07:13:10;;;;;;;12.82;9.68;;;;;;;;;;5282278;28;20017;-67
2023/05/31 07:15:41;;;;;;;14.48;9.70;;;;;;;;;;5282375;28;20271;-67
2023/05/31 07:18:13;;;;;;;12.60;9.60;;;;;;;;;;5281579;28;20460;-66
2023/05/31 07:20:44;;;;;;;15.68;9.75;;;;;;;;;;5282335;28;20508;-66
2023/05/31 07:23:15;;;;;;;13.43;9.40;;;;;;;;;;5282659;28;20603;-66
2023/05/31 07:25:46;;;;;;;15.32;10.07;;;;;;;;;;5280127;28;20029;-66
2023/05/31 07:28:17;;;;;;;13.80;10.15;;;;;;;;;;5282484;28;20259;-67
2023/05/31 07:30:48;;;;;;;14.17;9.83;;;;;;;;;;5282249;28;20021;-67
2023/05/31 07:33:20;;;;;;;12.50;9.20;;;;;;;;;;5281953;28;20393;-67
2023/05/31 07:35:52;;;;;;;13.85;9.32;;;;;;;;;;5282101;28;20103;-67
2023/05/31 07:38:23;;;;;;;15.20;10.13;;;;;;;;;;5282288;28;20114;-67
2023/05/31 07:40:54;;;;;;;12.93;9.10;;;;;;;;;;5280886;28;20025;-67
2023/05/31 07:43:26;;;;;;;10.50;8.45;;;;;;;;;;5282795;28;20784;-67
2023/05/31 07:45:57;;;;;;;15.45;8.70;;;;;;;;;;5281987;28;20159;-67
2023/05/31 07:48:28;;;;;;;12.20;9.40;;;;;;;;;;5282218;28;20020;-67
2023/05/31 07:51:00;;;;;;;12.52;9.07;;;;;;;;;;5281994;28;20013;-67
2023/05/31 07:53:31;;;;;;;9.27;7.10;;;;;;;;;;5281175;28;20017;-68
2023/05/31 07:56:02;;;;;;;11.48;9.07;;;;;;;;;;5281867;28;20658;-67
2023/05/31 07:58:33;;;;;;;9.73;8.23;;;;;;;;;;5281979;28;20025;-67
2023/05/31 08:01:04;;;;;;;14.80;9.13;;;;;;;;;;5281403;28;20028;-67
2023/05/31 08:03:36;;;;;;;12.35;8.48;;;;;;;;;;5282215;28;20265;-67
2023/05/31 08:06:07;;;;;;;13.33;8.93;;;;;;;;;;5281967;28;20024;-67
2023/05/31 08:08:38;;;;;;;11.80;9.05;;;;;;;;;;5280870;28;20251;-67
2023/05/31 08:11:10;;;;;;;12.17;8.57;;;;;;;;;;5282208;28;20032;-67
2023/05/31 08:13:41;;;;;;;13.10;8.57;;;;;;;;;;5281527;28;20377;-67
2023/05/31 08:16:12;;;;;;;13.90;8.50;;;;;;;;;;5281320;28;20388;-67
2023/05/31 08:18:44;;;;;;;15.35;8.68;;;;;;;;;;5281578;28;20373;-67
2023/05/31 08:21:16;;;;;;;11.82;8.25;;;;;;;;;;5281393;28;20254;-67
2023/05/31 08:23:47;;;;;;;11.32;7.80;;;;;;;;;;5281443;28;20020;-67
2023/05/31 08:26:19;;;;;;;12.75;7.90;;;;;;;;;;5282171;28;20008;-67
2023/05/31 08:28:51;;;;;;;12.82;7.80;;;;;;;;;;5279796;28;20017;-67
2023/05/31 08:31:22;;;;;;;11.32;7.57;;;;;;;;;;5281993;28;20024;-67
2023/05/31 08:33:55;;;;;;;13.38;7.22;;;;;;;;;;5281237;28;20458;-67
2023/05/31 08:36:26;;;;;;;9.60;6.60;;;;;;;;;;5281210;28;20081;-68
2023/05/31 08:38:58;;;;;;;13.18;7.75;;;;;;;;;;5281279;28;20864;-69
2023/05/31 08:41:31;;;;;;;10.05;6.78;;;;;;;;;;5281501;28;20040;-68
2023/05/31 08:44:04;;;;;;;11.27;6.45;;;;;;;;;;5280695;28;20027;-69
2023/05/31 08:46:35;;;;;;;8.98;4.95;;;;;;;;;;5276685;28;20030;-68
2023/05/31 08:49:12;;;;;;;12.02;5.53;;;;;;;;;;5280371;28;20021;-69
2023/05/31 08:51:45;;;;;;;9.30;5.38;;;;;;;;;;5280268;28;20109;-69
2023/05/31 08:54:16;;;;;;;8.60;5.25;;;;;;;;;;5281080;28;20377;-68
2023/05/31 08:56:48;;;;;;;9.75;4.80;;;;;;;;;;5279203;28;20053;-66
2023/05/31 08:59:19;;;;;;;6.95;5.00;;;;;;;;;;5279965;28;20037;-69
2023/05/31 09:01:52;;;;;;;9.45;5.07;;;;;;;;;;5280980;28;20012;-69
2023/05/31 09:04:25;;;;;;;7.75;5.22;;;;;;;;;;5280635;28;20020;-69
2023/05/31 09:06:56;;;;;;;6.45;4.57;;;;;;;;;;5280865;28;20013;-69
2023/05/31 09:09:27;;;;;;;9.47;3.90;;;;;;;;;;5281355;28;20036;-68
2023/05/31 09:11:58;;;;;;;9.00;4.63;;;;;;;;;;5280357;28;20107;-68
2023/05/31 09:14:30;;;;;;;6.67;4.03;;;;;;;;;;5281314;28;20078;-69
2023/05/31 09:17:02;;;;;;;10.07;4.80;;;;;;;;;;5281137;28;20103;-69
2023/05/31 09:19:33;;;;;;;7.78;3.92;;;;;;;;;;5280372;28;20039;-69
2023/05/31 09:22:05;;;;;;;6.18;3.70;;;;;;;;;;5281178;28;20103;-69
2023/05/31 09:24:38;;;;;;;8.05;3.70;;;;;;;;;;5280287;28;20032;-69
2023/05/31 09:27:09;;;;;;;5.03;3.45;;;;;;;;;;5281231;28;20440;-69
2023/05/31 09:29:42;;;;;;;7.22;3.83;;;;;;;;;;5280731;28;20099;-69
2023/05/31 09:32:13;;;;;;;4.97;2.95;;;;;;;;;;5280388;28;20013;-66
2023/05/31 09:34:44;;;;;;;6.10;3.37;;;;;;;;;;5280985;28;20120;-68
2023/05/31 09:37:23;;;;;;;7.68;4.30;;;;;;;;;;5281382;28;20024;-66
2023/05/31 09:39:55;;;;;;;9.48;4.10;;;;;;;;;;5279916;28;20494;-66
2023/05/31 09:42:28;;;;;;;6.35;3.63;;;;;;;;;;5285181;28;20020;-66
2023/05/31 09:44:59;;;;;;;5.97;2.33;;;;;;;;;;5284306;28;20029;-67
2023/05/31 09:47:31;;;;;;;6.05;3.40;;;;;;;;;;5283941;28;20410;-67
2023/05/31 09:50:02;;;;;;;5.20;2.73;;;;;;;;;;5284563;28;20111;-67
2023/05/31 09:52:37;;;;;;;9.73;2.70;;;;;;;;;;5284414;28;20017;-67
2023/05/31 09:55:10;;;;;;;10.43;2.92;;;;;;;;;;5282333;28;20287;-67
2023/05/31 09:57:43;;;;;;;7.28;2.63;;;;;;;;;;5282056;28;20020;-67
2023/05/31 10:00:16;;;;;;;7.05;2.03;;;;;;;;;;5283748;28;20059;-68
2023/05/31 10:02:52;;;;;;;7.47;3.17;;;;;;;;;;5283822;28;20027;-67
2023/05/31 10:05:23;;;;;;;6.65;2.50;;;;;;;;;;5284390;28;20111;-68
2023/05/31 10:07:54;;;;;;;5.07;1.90;;;;;;;;;;5281850;28;20104;-67
2023/05/31 10:10:26;;;;;;;5.13;2.17;;;;;;;;;;5284658;28;20265;-67
2023/05/31 10:12:58;;;;;;;5.82;1.92;;;;;;;;;;5284033;28;20460;-67
2023/05/31 10:15:30;;;;;;;5.85;2.35;;;;;;;;;;5283582;28;20024;-67
2023/05/31 10:18:03;;;;;;;7.05;2.38;;;;;;;;;;5283895;28;20069;-67
2023/05/31 10:20:39;;;;;;;5.78;1.98;;;;;;;;;;5283799;28;20029;-67
2023/05/31 10:23:21;;;;;;;10.20;2.03;;;;;;;;;;5283400;28;20024;-67
2023/05/31 10:25:56;;;;;;;3.92;1.77;;;;;;;;;;5283497;28;20024;-67
2023/05/31 10:28:28;;;;;;;4.25;1.50;;;;;;;;;;5283430;28;20073;-67
2023/05/31 10:31:00;;;;;;;5.75;2.25;;;;;;;;;;5283743;28;20024;-67
2023/05/31 10:33:31;;;;;;;6.90;3.03;;;;;;;;;;5283913;28;20104;-67
2023/05/31 10:36:02;;;;;;;4.90;1.80;;;;;;;;;;5282976;28;20016;-67
2023/05/31 10:38:49;;;;;;;5.68;1.63;;;;;;;;;;5283540;28;20119;-66
2023/05/31 10:41:23;;;;;;;6.45;2.50;;;;;;;;;;5283808;28;20035;-67
2023/05/31 10:43:57;;;;;;;6.63;1.48;;;;;;;;;;5282242;28;20066;-67
2023/05/31 10:46:30;;;;;;;6.65;1.60;;;;;;;;;;5283973;28;20035;-67
2023/05/31 10:49:02;;;;;;;4.75;1.75;;;;;;;;;;5282659;28;20024;-67
2023/05/31 10:51:39;;;;;;;5.88;1.63;;;;;;;;;;5282653;28;20103;-67
2023/05/31 10:54:20;;;;;;;5.45;1.08;;;;;;;;;;5283378;28;20017;-66
2023/05/31 10:56:55;;;;;;;5.28;1.70;;;;;;;;;;5282022;28;20100;-67
2023/05/31 10:59:27;;;;;;;4.00;1.38;;;;;;;;;;5283328;28;20032;-66
2023/05/31 11:02:00;;;;;;;3.35;1.02;;;;;;;;;;5282718;28;20873;-67
2023/05/31 11:04:31;;;;;;;8.57;1.83;;;;;;;;;;5282270;28;20017;-67
2023/05/31 11:07:16;;;;;;;5.88;1.40;;;;;;;;;;5283280;28;20024;-66
2023/05/31 11:09:56;;;;;;;6.70;1.63;;;;;;;;;;5282673;28;20048;-67
2023/05/31 11:12:36;;;;;;;7.53;1.40;;;;;;;;;;5282515;28;20028;-67
2023/05/31 11:15:12;;;;;;;5.50;1.55;;;;;;;;;;5283021;28;20424;-67
2023/05/31 11:17:50;;;;;;;5.65;1.50;;;;;;;;;;5281577;28;20032;-67
2023/05/31 11:20:22;;;;;;;6.68;1.40;;;;;;;;;;5282927;28;20059;-67
2023/05/31 11:23:12;;;;;;;6.55;2.03;;;;;;;;;;5282174;28;20031;-68
2023/05/31 11:25:43;;;;;;;3.90;1.10;;;;;;;;;;5281583;28;20052;-67
2023/05/31 11:28:17;;;;;;;5.33;1.07;;;;;;;;;;5270905;28;20089;-67
2023/05/31 11:30:48;;;;;;;8.20;1.20;;;;;;;;;;5271006;28;20262;-67
2023/05/31 11:33:19;;;;;;;5.50;1.45;;;;;;;;;;5280085;28;20076;-67
2023/05/31 11:35:51;;;;;;;4.78;1.10;;;;;;;;;;5280751;28;20020;-67
2023/05/31 11:38:22;;;;;;;2.75;0.75;;;;;;;;;;5280519;28;20104;-67
2023/05/31 11:41:01;;;;;;;5.30;0.90;;;;;;;;;;5280378;28;20129;-68
2023/05/31 11:43:33;;;;;;;4.63;0.90;;;;;;;;;;5281076;28;20025;-68
2023/05/31 11:46:04;;;;;;;6.22;1.08;;;;;;;;;;5281302;28;20535;-68
2023/05/31 11:48:39;;;;;;;3.72;1.13;;;;;;;;;;5281716;28;20023;-68
2023/05/31 11:51:10;;;;;;;4.70;1.25;;;;;;;;;;5282036;28;20027;-67
2023/05/31 11:53:41;;;;;;;5.73;1.17;;;;;;;;;;5279496;28;20020;-67
2023/05/31 11:56:14;;;;;;;4.15;1.00;;;;;;;;;;5281795;28;20090;-67
2023/05/31 11:58:45;;;;;;;7.57;1.00;;;;;;;;;;5277933;28;20090;-67
2023/05/31 12:01:17;;;;;;;6.65;1.40;;;;;;;;;;5281371;28;20028;-67
2023/05/31 12:03:48;;;;;;;4.60;1.00;;;;;;;;;;5281415;28;20020;-68
2023/05/31 12:06:21;;;;;;;5.40;1.40;;;;;;;;;;5281259;28;20324;-68
2023/05/31 12:08:52;;;;;;;5.38;1.50;;;;;;;;;;5281140;28;20024;-68
2023/05/31 12:11:23;;;;;;;5.22;1.27;;;;;;;;;;5282084;28;20021;-67
2023/05/31 12:13:55;;;;;;;6.90;1.50;;;;;;;;;;5279983;28;20024;-67
2023/05/31 12:16:27;;;;;;;5.90;1.48;;;;;;;;;;5282134;28;20013;-67
2023/05/31 12:18:58;;;;;;;4.35;1.30;;;;;;;;;;5280507;28;20056;-67
2023/05/31 12:21:29;;;;;;;4.80;1.23;;;;;;;;;;5281157;28;20103;-67
2023/05/31 12:24:03;;;;;;;5.30;1.30;;;;;;;;;;5281541;28;20266;-68
2023/05/31 12:26:36;;;;;;;4.40;1.38;;;;;;;;;;5280901;28;20632;-67
2023/05/31 12:29:07;;;;;;;6.07;1.00;;;;;;;;;;5279051;28;20099;-67
2023/05/31 12:31:38;;;;;;;4.93;1.60;;;;;;;;;;5281059;28;20432;-68
2023/05/31 12:34:13;;;;;;;5.60;1.60;;;;;;;;;;5282072;28;20463;-68
2023/05/31 12:36:45;;;;;;;4.82;1.25;;;;;;;;;;5280566;28;20025;-68
2023/05/31 12:39:20;;;;;;;7.78;0.90;;;;;;;;;;5281813;28;20082;-68
2023/05/31 12:41:52;;;;;;;7.47;1.10;;;;;;;;;;5280442;28;20021;-68
2023/05/31 12:44:24;;;;;;;5.43;1.05;;;;;;;;;;5281933;28;20023;-67
2023/05/31 12:47:22;;;;;;;4.85;1.00;;;;;;;;;;5281212;28;20049;-68
2023/05/31 12:50:00;;;;;;;6.00;0.90;;;;;;;;;;5279169;28;20376;-67
2023/05/31 12:52:33;;;;;;;5.47;1.30;;;;;;;;;;5281380;28;20095;-67
2023/05/31 12:55:05;;;;;;;7.47;0.98;;;;;;;;;;5281140;28;20061;-68
2023/05/31 12:57:36;;;;;;;6.00;0.80;;;;;;;;;;5280823;28;20347;-68
2023/05/31 13:00:10;;;;;;;4.15;0.90;;;;;;;;;;5281349;28;20040;-68
2023/05/31 13:02:41;;;;;;;6.43;1.30;;;;;;;;;;5280190;28;20036;-67
2023/05/31 13:05:12;;;;;;;6.37;1.10;;;;;;;;;;5281576;28;20067;-68
2023/05/31 13:07:46;;;;;;;7.85;1.17;;;;;;;;;;5280757;28;20258;-68
2023/05/31 13:10:17;;;;;;;5.32;0.98;;;;;;;;;;5280697;28;20110;-68
2023/05/31 13:12:48;;;;;;;5.83;1.03;;;;;;;;;;5280473;28;20028;-69
2023/05/31 13:15:19;;;;;;;5.00;1.50;;;;;;;;;;5282084;28;20259;-68
2023/05/31 13:17:52;;;;;;;6.50;1.00;;;;;;;;;;5283796;28;20263;-68
2023/05/31 13:20:23;;;;;;;5.65;0.93;;;;;;;;;;5285092;28;20025;-68
2023/05/31 13:22:54;;;;;;;5.15;1.10;;;;;;;;;;5284727;28;20114;-67
2023/05/31 13:25:25;;;;;;;5.70;0.90;;;;;;;;;;5284081;28;20021;-68
2023/05/31 13:27:57;;;;;;;2.83;0.77;;;;;;;;;;5282801;28;20021;-67
2023/05/31 13:30:28;;;;;;;5.93;1.30;;;;;;;;;;5283442;28;20380;-68
2023/05/31 13:32:59;;;;;;;3.60;1.00;;;;;;;;;;5282145;28;20032;-68
2023/05/31 13:35:31;;;;;;;4.40;0.90;;;;;;;;;;5283235;28;20016;-68
2023/05/31 13:38:02;;;;;;;5.72;0.95;;;;;;;;;;5282312;28;20082;-68
2023/05/31 13:40:35;;;;;;;8.55;1.05;;;;;;;;;;5283434;28;20056;-68
2023/05/31 13:43:06;;;;;;;5.20;1.02;;;;;;;;;;5284534;28;20020;-67
2023/05/31 13:45:37;;;;;;;4.05;0.85;;;;;;;;;;5283773;28;20471;-69
2023/05/31 13:48:09;;;;;;;6.75;0.93;;;;;;;;;;5284516;28;20024;-68
2023/05/31 13:50:40;;;;;;;4.43;0.93;;;;;;;;;;5284370;28;20013;-68
2023/05/31 13:53:11;;;;;;;5.87;1.00;;;;;;;;;;5283895;28;20020;-68
2023/05/31 13:55:43;;;;;;;8.20;1.40;;;;;;;;;;5283964;28;20294;-68
2023/05/31 13:58:16;;;;;;;6.07;1.10;;;;;;;;;;5284708;28;20353;-68
2023/05/31 14:00:47;;;;;;;5.03;0.90;;;;;;;;;;5283311;28;20119;-68
2023/05/31 14:03:18;;;;;;;7.50;3.38;;;;;;;;;;5284531;28;20597;-68
2023/05/31 14:05:49;;;;;;;7.03;2.15;;;;;;;;;;5284108;28;20024;-68
2023/05/31 14:08:22;;;;;;;5.47;1.33;;;;;;;;;;5283868;28;20021;-68
2023/05/31 14:10:53;;;;;;;4.95;1.08;;;;;;;;;;5284071;28;20021;-67
2023/05/31 14:13:24;;;;;;;4.93;0.97;;;;;;;;;;5283708;28;20021;-67
2023/05/31 14:15:56;;;;;;;8.67;0.93;;;;;;;;;;5284108;28;20103;-67
2023/05/31 14:18:27;;;;;;;6.85;1.00;;;;;;;;;;5284238;28;20293;-67
2023/05/31 14:20:59;;;;;;;4.73;1.27;;;;;;;;;;5283099;28;20031;-68
2023/05/31 14:23:31;;;;;;;5.93;0.98;;;;;;;;;;5284123;28;20021;-67
2023/05/31 14:26:03;;;;;;;7.40;1.02;;;;;;;;;;5283833;28;20103;-67
2023/05/31 14:28:34;;;;;;;6.30;0.80;;;;;;;;;;5283286;28;20038;-68
2023/05/31 14:31:05;;;;;;;9.55;1.55;;;;;;;;;;5284023;28;20025;-68
2023/05/31 14:33:39;;;;;;;8.23;0.93;;;;;;;;;;5283588;28;20028;-68
2023/05/31 14:36:11;;;;;;;4.10;1.00;;;;;;;;;;5283091;28;20077;-68
2023/05/31 14:38:42;;;;;;;3.87;0.90;;;;;;;;;;5282855;28;20025;-68
2023/05/31 14:41:13;;;;;;;2.93;0.80;;;;;;;;;;5283149;28;20638;-68
2023/05/31 14:43:46;;;;;;;4.13;0.80;;;;;;;;;;5283050;28;20048;-68
2023/05/31 14:46:17;;;;;;;6.32;0.73;;;;;;;;;;5283801;28;20032;-68
2023/05/31 14:48:48;;;;;;;4.33;0.83;;;;;;;;;;5282362;28;20024;-68
2023/05/31 14:51:19;;;;;;;4.43;1.10;;;;;;;;;;5283557;28;20648;-67
2023/05/31 14:53:50;;;;;;;5.80;1.23;;;;;;;;;;5283035;28;20025;-68
2023/05/31 14:56:22;;;;;;;8.37;1.00;;;;;;;;;;5282710;28;20048;-67
2023/05/31 14:58:53;;;;;;;8.15;1.38;;;;;;;;;;5282974;28;20290;-67
2023/05/31 15:01:24;;;;;;;4.43;0.93;;;;;;;;;;5283545;28;20118;-67
2023/05/31 15:03:56;;;;;;;5.07;1.20;;;;;;;;;;5282310;28;20025;-67
2023/05/31 15:06:27;;;;;;;4.33;0.80;;;;;;;;;;5283393;28;20027;-67